sensor_id;sensor_type;location;lat;lon;timestamp;P1;durP1;ratioP1;P2;durP2;ratioP2
24335;SDS011;33098;52.400;16.880;2022-09-29T00:01:27;11.30;;;8.80;;
24335;SDS011;33098;52.400;16.880;2022-09-29T00:03:59;12.20;;;8.40;;
24335;SDS011;33098;52.400;16.880;2022-09-29T00:06:26;10.60;;;8.60;;
24335;SDS011;33098;52.400;16.880;2022-09-29T00:08:52;11.50;;;8.30;;
24335;SDS011;33098;52.400;16.880;2022-09-29T00:11:21;10.30;;;8.50;;
24335;SDS011;33098;52.400;16.880;2022-09-29T00:13:47;12.00;;;8.10;;
24335;SDS011;33098;52.400;16.880;2022-09-29T00:16:15;12.10;;;8.50;;
24335;SDS011;33098;52.400;16.880;2022-09-29T00:18:45;11.00;;;8.90;;
24335;SDS011;33098;52.400;16.880;2022-09-29T00:21:19;10.50;;;8.20;;
24335;SDS011;33098;52.400;16.880;2022-09-29T00:23:48;10.90;;;8.50;;
24335;SDS011;33098;52.400;16.880;2022-09-29T00:26:17;11.10;;;8.90;;
24335;SDS011;33098;52.400;16.880;2022-09-29T00:28:47;11.00;;;8.20;;
24335;SDS011;33098;52.400;16.880;2022-09-29T00:31:19;11.30;;;8.20;;
24335;SDS011;33098;52.400;16.880;2022-09-29T00:33:46;10.30;;;8.60;;
24335;SDS011;33098;52.400;16.880;2022-09-29T00:36:15;9.70;;;7.90;;
24335;SDS011;33098;52.400;16.880;2022-09-29T00:38:50;9.40;;;8.40;;
24335;SDS011;33098;52.400;16.880;2022-09-29T00:41:19;9.30;;;8.30;;
24335;SDS011;33098;52.400;16.880;2022-09-29T00:43:56;10.10;;;8.40;;
24335;SDS011;33098;52.400;16.880;2022-09-29T00:46:32;11.20;;;8.80;;
24335;SDS011;33098;52.400;16.880;2022-09-29T00:49:04;10.20;;;7.90;;
24335;SDS011;33098;52.400;16.880;2022-09-29T00:51:43;10.80;;;8.80;;
24335;SDS011;33098;52.400;16.880;2022-09-29T00:54:15;10.90;;;8.00;;
24335;SDS011;33098;52.400;16.880;2022-09-29T00:56:42;11.30;;;8.10;;
24335;SDS011;33098;52.400;16.880;2022-09-29T00:59:19;8.40;;;7.50;;
24335;SDS011;33098;52.400;16.880;2022-09-29T01:02:00;9.60;;;8.30;;
24335;SDS011;33098;52.400;16.880;2022-09-29T01:04:28;8.90;;;7.80;;
24335;SDS011;33098;52.400;16.880;2022-09-29T01:07:01;8.10;;;7.30;;
24335;SDS011;33098;52.400;16.880;2022-09-29T01:09:30;10.00;;;7.20;;
24335;SDS011;33098;52.400;16.880;2022-09-29T01:14:28;7.60;;;6.90;;
24335;SDS011;33098;52.400;16.880;2022-09-29T01:16:58;9.00;;;7.40;;
24335;SDS011;33098;52.400;16.880;2022-09-29T01:19:44;11.50;;;7.30;;
24335;SDS011;33098;52.400;16.880;2022-09-29T01:49:59;12.30;;;10.20;;
24335;SDS011;33098;52.400;16.880;2022-09-29T01:52:32;12.00;;;10.60;;
24335;SDS011;33098;52.400;16.880;2022-09-29T01:55:07;12.90;;;10.80;;
24335;SDS011;33098;52.400;16.880;2022-09-29T01:57:54;11.90;;;10.20;;
24335;SDS011;33098;52.400;16.880;2022-09-29T02:00:35;14.00;;;11.60;;
24335;SDS011;33098;52.400;16.880;2022-09-29T02:03:09;12.90;;;11.60;;
24335;SDS011;33098;52.400;16.880;2022-09-29T02:08:53;14.20;;;11.40;;
24335;SDS011;33098;52.400;16.880;2022-09-29T02:11:22;13.20;;;11.60;;
24335;SDS011;33098;52.400;16.880;2022-09-29T02:16:28;14.80;;;12.20;;
24335;SDS011;33098;52.400;16.880;2022-09-29T02:21:44;16.80;;;13.40;;
24335;SDS011;33098;52.400;16.880;2022-09-29T02:24:12;14.30;;;12.30;;
24335;SDS011;33098;52.400;16.880;2022-09-29T02:26:39;16.80;;;13.60;;
24335;SDS011;33098;52.400;16.880;2022-09-29T02:29:09;15.00;;;12.80;;
24335;SDS011;33098;52.400;16.880;2022-09-29T02:31:37;18.40;;;13.70;;
24335;SDS011;33098;52.400;16.880;2022-09-29T02:34:09;16.40;;;13.00;;
24335;SDS011;33098;52.400;16.880;2022-09-29T02:56:51;15.70;;;13.60;;
24335;SDS011;33098;52.400;16.880;2022-09-29T02:59:34;16.40;;;13.80;;
24335;SDS011;33098;52.400;16.880;2022-09-29T03:02:13;17.00;;;14.20;;
24335;SDS011;33098;52.400;16.880;2022-09-29T03:04:47;17.80;;;14.50;;
24335;SDS011;33098;52.400;16.880;2022-09-29T03:07:19;16.20;;;13.50;;
24335;SDS011;33098;52.400;16.880;2022-09-29T03:09:50;15.50;;;13.80;;
24335;SDS011;33098;52.400;16.880;2022-09-29T03:12:20;16.40;;;13.40;;
24335;SDS011;33098;52.400;16.880;2022-09-29T03:14:49;17.10;;;14.30;;
24335;SDS011;33098;52.400;16.880;2022-09-29T03:17:22;15.50;;;11.80;;
24335;SDS011;33098;52.400;16.880;2022-09-29T03:19:51;15.60;;;12.20;;
24335;SDS011;33098;52.400;16.880;2022-09-29T03:22:21;14.90;;;12.80;;
24335;SDS011;33098;52.400;16.880;2022-09-29T03:24:55;16.20;;;12.50;;
24335;SDS011;33098;52.400;16.880;2022-09-29T03:27:30;14.20;;;12.70;;
24335;SDS011;33098;52.400;16.880;2022-09-29T03:30:04;13.80;;;11.60;;
24335;SDS011;33098;52.400;16.880;2022-09-29T03:32:33;12.60;;;11.30;;
24335;SDS011;33098;52.400;16.880;2022-09-29T03:35:05;13.20;;;11.80;;
24335;SDS011;33098;52.400;16.880;2022-09-29T03:37:32;13.30;;;11.30;;
24335;SDS011;33098;52.400;16.880;2022-09-29T03:39:59;14.40;;;12.10;;
24335;SDS011;33098;52.400;16.880;2022-09-29T03:42:28;14.90;;;12.60;;
24335;SDS011;33098;52.400;16.880;2022-09-29T03:44:54;14.50;;;12.60;;
24335;SDS011;33098;52.400;16.880;2022-09-29T03:47:26;14.10;;;12.40;;
24335;SDS011;33098;52.400;16.880;2022-09-29T03:49:53;15.70;;;13.00;;
24335;SDS011;33098;52.400;16.880;2022-09-29T03:52:23;17.70;;;13.50;;
24335;SDS011;33098;52.400;16.880;2022-09-29T03:54:53;17.50;;;14.20;;
24335;SDS011;33098;52.400;16.880;2022-09-29T03:57:19;17.70;;;14.10;;
24335;SDS011;33098;52.400;16.880;2022-09-29T03:59:46;17.50;;;13.50;;
24335;SDS011;33098;52.400;16.880;2022-09-29T04:02:16;18.10;;;14.20;;
24335;SDS011;33098;52.400;16.880;2022-09-29T04:04:50;17.30;;;13.50;;
24335;SDS011;33098;52.400;16.880;2022-09-29T04:07:18;20.30;;;14.50;;
24335;SDS011;33098;52.400;16.880;2022-09-29T04:09:44;17.80;;;14.70;;
24335;SDS011;33098;52.400;16.880;2022-09-29T04:12:12;16.40;;;14.60;;
24335;SDS011;33098;52.400;16.880;2022-09-29T04:14:41;18.00;;;15.30;;
24335;SDS011;33098;52.400;16.880;2022-09-29T04:17:12;17.80;;;14.70;;
24335;SDS011;33098;52.400;16.880;2022-09-29T04:19:46;20.40;;;15.40;;
24335;SDS011;33098;52.400;16.880;2022-09-29T04:22:14;18.10;;;15.10;;
24335;SDS011;33098;52.400;16.880;2022-09-29T04:24:44;20.90;;;14.50;;
24335;SDS011;33098;52.400;16.880;2022-09-29T04:27:15;17.20;;;14.40;;
24335;SDS011;33098;52.400;16.880;2022-09-29T04:29:43;17.00;;;14.70;;
24335;SDS011;33098;52.400;16.880;2022-09-29T04:32:14;17.30;;;14.20;;
24335;SDS011;33098;52.400;16.880;2022-09-29T04:34:43;18.50;;;14.40;;
24335;SDS011;33098;52.400;16.880;2022-09-29T04:37:13;18.50;;;15.10;;
24335;SDS011;33098;52.400;16.880;2022-09-29T04:39:41;20.10;;;14.10;;
24335;SDS011;33098;52.400;16.880;2022-09-29T04:42:07;18.60;;;14.70;;
24335;SDS011;33098;52.400;16.880;2022-09-29T04:44:34;21.50;;;14.80;;
24335;SDS011;33098;52.400;16.880;2022-09-29T04:47:03;17.50;;;14.10;;
24335;SDS011;33098;52.400;16.880;2022-09-29T04:49:33;19.30;;;14.00;;
24335;SDS011;33098;52.400;16.880;2022-09-29T04:52:00;18.10;;;13.70;;
24335;SDS011;33098;52.400;16.880;2022-09-29T04:54:33;17.30;;;14.10;;
24335;SDS011;33098;52.400;16.880;2022-09-29T04:57:00;16.70;;;12.40;;
24335;SDS011;33098;52.400;16.880;2022-09-29T04:59:29;15.30;;;12.60;;
24335;SDS011;33098;52.400;16.880;2022-09-29T05:02:04;15.40;;;11.90;;
24335;SDS011;33098;52.400;16.880;2022-09-29T05:04:34;14.70;;;12.80;;
24335;SDS011;33098;52.400;16.880;2022-09-29T05:07:00;15.00;;;12.50;;
24335;SDS011;33098;52.400;16.880;2022-09-29T05:09:29;15.80;;;12.40;;
24335;SDS011;33098;52.400;16.880;2022-09-29T05:11:56;15.70;;;12.80;;
24335;SDS011;33098;52.400;16.880;2022-09-29T05:14:25;19.40;;;13.40;;
24335;SDS011;33098;52.400;16.880;2022-09-29T05:16:57;17.80;;;14.20;;
24335;SDS011;33098;52.400;16.880;2022-09-29T05:19:24;20.10;;;14.20;;
24335;SDS011;33098;52.400;16.880;2022-09-29T05:21:54;16.90;;;13.30;;
24335;SDS011;33098;52.400;16.880;2022-09-29T05:24:20;17.90;;;14.10;;
24335;SDS011;33098;52.400;16.880;2022-09-29T05:26:49;18.10;;;14.70;;
24335;SDS011;33098;52.400;16.880;2022-09-29T05:29:16;21.80;;;14.20;;
24335;SDS011;33098;52.400;16.880;2022-09-29T05:31:45;18.70;;;13.60;;
24335;SDS011;33098;52.400;16.880;2022-09-29T05:34:11;18.80;;;14.40;;
24335;SDS011;33098;52.400;16.880;2022-09-29T05:36:38;18.90;;;14.50;;
24335;SDS011;33098;52.400;16.880;2022-09-29T05:39:09;19.00;;;14.10;;
24335;SDS011;33098;52.400;16.880;2022-09-29T05:41:37;18.60;;;14.10;;
24335;SDS011;33098;52.400;16.880;2022-09-29T05:44:04;23.00;;;14.40;;
24335;SDS011;33098;52.400;16.880;2022-09-29T05:46:31;18.70;;;14.40;;
24335;SDS011;33098;52.400;16.880;2022-09-29T05:48:58;18.50;;;14.80;;
24335;SDS011;33098;52.400;16.880;2022-09-29T05:51:25;18.50;;;14.60;;
24335;SDS011;33098;52.400;16.880;2022-09-29T05:53:53;20.50;;;15.20;;
24335;SDS011;33098;52.400;16.880;2022-09-29T05:56:22;22.40;;;15.00;;
24335;SDS011;33098;52.400;16.880;2022-09-29T05:58:50;20.10;;;14.70;;
24335;SDS011;33098;52.400;16.880;2022-09-29T06:01:22;17.70;;;13.90;;
24335;SDS011;33098;52.400;16.880;2022-09-29T06:03:54;18.10;;;14.40;;
24335;SDS011;33098;52.400;16.880;2022-09-29T06:06:25;21.50;;;15.40;;
24335;SDS011;33098;52.400;16.880;2022-09-29T06:08:53;18.90;;;15.20;;
24335;SDS011;33098;52.400;16.880;2022-09-29T06:11:21;17.40;;;14.60;;
24335;SDS011;33098;52.400;16.880;2022-09-29T06:13:56;17.30;;;14.20;;
24335;SDS011;33098;52.400;16.880;2022-09-29T06:16:25;19.30;;;14.30;;
24335;SDS011;33098;52.400;16.880;2022-09-29T06:18:54;16.70;;;13.90;;
24335;SDS011;33098;52.400;16.880;2022-09-29T06:21:22;19.00;;;13.70;;
24335;SDS011;33098;52.400;16.880;2022-09-29T06:23:52;18.30;;;13.00;;
24335;SDS011;33098;52.400;16.880;2022-09-29T06:26:20;17.90;;;13.40;;
24335;SDS011;33098;52.400;16.880;2022-09-29T06:28:48;17.20;;;13.90;;
24335;SDS011;33098;52.400;16.880;2022-09-29T06:31:17;16.20;;;13.50;;
24335;SDS011;33098;52.400;16.880;2022-09-29T06:33:46;19.00;;;13.80;;
24335;SDS011;33098;52.400;16.880;2022-09-29T06:36:17;17.80;;;13.60;;
24335;SDS011;33098;52.400;16.880;2022-09-29T06:39:06;18.90;;;14.40;;
24335;SDS011;33098;52.400;16.880;2022-09-29T06:41:37;16.70;;;13.80;;
24335;SDS011;33098;52.400;16.880;2022-09-29T06:44:05;19.10;;;14.50;;
24335;SDS011;33098;52.400;16.880;2022-09-29T06:46:33;19.30;;;14.50;;
24335;SDS011;33098;52.400;16.880;2022-09-29T06:49:00;20.20;;;15.50;;
24335;SDS011;33098;52.400;16.880;2022-09-29T06:51:27;18.00;;;14.00;;
24335;SDS011;33098;52.400;16.880;2022-09-29T06:53:54;22.70;;;15.80;;
24335;SDS011;33098;52.400;16.880;2022-09-29T06:56:23;21.10;;;16.60;;
24335;SDS011;33098;52.400;16.880;2022-09-29T06:58:51;20.10;;;15.20;;
24335;SDS011;33098;52.400;16.880;2022-09-29T07:01:19;22.00;;;16.20;;
24335;SDS011;33098;52.400;16.880;2022-09-29T07:03:49;24.00;;;16.50;;
24335;SDS011;33098;52.400;16.880;2022-09-29T07:06:15;21.70;;;15.90;;
24335;SDS011;33098;52.400;16.880;2022-09-29T07:08:43;22.00;;;16.90;;
24335;SDS011;33098;52.400;16.880;2022-09-29T07:11:12;23.00;;;17.60;;
24335;SDS011;33098;52.400;16.880;2022-09-29T07:13:40;23.30;;;17.10;;
24335;SDS011;33098;52.400;16.880;2022-09-29T07:16:07;22.00;;;17.10;;
24335;SDS011;33098;52.400;16.880;2022-09-29T07:18:36;22.80;;;16.60;;
24335;SDS011;33098;52.400;16.880;2022-09-29T07:21:08;21.70;;;16.10;;
24335;SDS011;33098;52.400;16.880;2022-09-29T07:23:38;20.90;;;15.40;;
24335;SDS011;33098;52.400;16.880;2022-09-29T07:26:05;17.20;;;13.50;;
24335;SDS011;33098;52.400;16.880;2022-09-29T07:28:34;16.70;;;13.50;;
24335;SDS011;33098;52.400;16.880;2022-09-29T07:31:05;16.60;;;13.20;;
24335;SDS011;33098;52.400;16.880;2022-09-29T07:33:34;16.70;;;13.90;;
24335;SDS011;33098;52.400;16.880;2022-09-29T07:36:00;16.40;;;13.50;;
24335;SDS011;33098;52.400;16.880;2022-09-29T07:38:28;14.70;;;13.00;;
24335;SDS011;33098;52.400;16.880;2022-09-29T07:41:02;16.30;;;12.60;;
24335;SDS011;33098;52.400;16.880;2022-09-29T07:43:33;15.20;;;13.20;;
24335;SDS011;33098;52.400;16.880;2022-09-29T07:46:00;18.10;;;14.50;;
24335;SDS011;33098;52.400;16.880;2022-09-29T07:48:27;15.10;;;12.70;;
24335;SDS011;33098;52.400;16.880;2022-09-29T07:53:38;15.00;;;11.70;;
24335;SDS011;33098;52.400;16.880;2022-09-29T07:56:14;14.20;;;11.20;;
24335;SDS011;33098;52.400;16.880;2022-09-29T07:58:44;15.80;;;10.60;;
24335;SDS011;33098;52.400;16.880;2022-09-29T08:01:13;11.90;;;9.80;;
24335;SDS011;33098;52.400;16.880;2022-09-29T08:03:49;14.40;;;11.20;;
24335;SDS011;33098;52.400;16.880;2022-09-29T08:06:26;12.00;;;9.60;;
24335;SDS011;33098;52.400;16.880;2022-09-29T08:08:53;12.20;;;10.30;;
24335;SDS011;33098;52.400;16.880;2022-09-29T08:11:23;13.20;;;10.70;;
24335;SDS011;33098;52.400;16.880;2022-09-29T08:13:50;11.90;;;9.90;;
24335;SDS011;33098;52.400;16.880;2022-09-29T08:16:19;13.00;;;10.10;;
24335;SDS011;33098;52.400;16.880;2022-09-29T08:18:46;12.90;;;9.60;;
24335;SDS011;33098;52.400;16.880;2022-09-29T08:21:13;10.20;;;9.00;;
24335;SDS011;33098;52.400;16.880;2022-09-29T08:23:41;12.40;;;9.00;;
24335;SDS011;33098;52.400;16.880;2022-09-29T08:26:16;11.30;;;8.90;;
24335;SDS011;33098;52.400;16.880;2022-09-29T08:28:46;10.70;;;8.80;;
24335;SDS011;33098;52.400;16.880;2022-09-29T08:31:17;11.30;;;8.50;;
24335;SDS011;33098;52.400;16.880;2022-09-29T08:33:50;10.90;;;8.90;;
24335;SDS011;33098;52.400;16.880;2022-09-29T08:36:18;11.20;;;9.30;;
24335;SDS011;33098;52.400;16.880;2022-09-29T08:38:51;13.50;;;9.50;;
24335;SDS011;33098;52.400;16.880;2022-09-29T08:41:29;12.80;;;9.90;;
24335;SDS011;33098;52.400;16.880;2022-09-29T08:44:47;12.30;;;10.10;;
24335;SDS011;33098;52.400;16.880;2022-09-29T08:46:51;14.10;;;10.50;;
24335;SDS011;33098;52.400;16.880;2022-09-29T08:49:36;12.30;;;9.70;;
24335;SDS011;33098;52.400;16.880;2022-09-29T08:52:25;13.70;;;9.70;;
24335;SDS011;33098;52.400;16.880;2022-09-29T08:55:11;14.10;;;10.60;;
24335;SDS011;33098;52.400;16.880;2022-09-29T08:57:56;15.30;;;10.70;;
24335;SDS011;33098;52.400;16.880;2022-09-29T09:00:36;14.90;;;10.30;;
24335;SDS011;33098;52.400;16.880;2022-09-29T09:06:31;13.70;;;11.20;;
24335;SDS011;33098;52.400;16.880;2022-09-29T09:20:54;14.50;;;11.10;;
24335;SDS011;33098;52.400;16.880;2022-09-29T09:26:06;13.50;;;10.80;;
24335;SDS011;33098;52.400;16.880;2022-09-29T09:28:37;12.90;;;9.80;;
24335;SDS011;33098;52.400;16.880;2022-09-29T09:41:36;13.10;;;9.30;;
24335;SDS011;33098;52.400;16.880;2022-09-29T09:44:12;12.10;;;9.20;;
24335;SDS011;33098;52.400;16.880;2022-09-29T09:46:44;10.20;;;8.80;;
24335;SDS011;33098;52.400;16.880;2022-09-29T09:54:43;10.50;;;8.50;;
24335;SDS011;33098;52.400;16.880;2022-09-29T09:57:21;13.10;;;9.00;;
24335;SDS011;33098;52.400;16.880;2022-09-29T10:00:10;10.10;;;8.50;;
24335;SDS011;33098;52.400;16.880;2022-09-29T10:02:45;10.80;;;8.80;;
24335;SDS011;33098;52.400;16.880;2022-09-29T10:05:17;11.40;;;8.20;;
24335;SDS011;33098;52.400;16.880;2022-09-29T10:07:54;9.30;;;8.30;;
24335;SDS011;33098;52.400;16.880;2022-09-29T10:10:22;10.90;;;8.80;;
24335;SDS011;33098;52.400;16.880;2022-09-29T10:12:57;11.70;;;8.70;;
24335;SDS011;33098;52.400;16.880;2022-09-29T10:18:24;11.50;;;8.30;;
24335;SDS011;33098;52.400;16.880;2022-09-29T10:20:56;9.70;;;8.10;;
24335;SDS011;33098;52.400;16.880;2022-09-29T10:23:31;11.00;;;8.50;;
24335;SDS011;33098;52.400;16.880;2022-09-29T10:29:17;11.60;;;9.60;;
24335;SDS011;33098;52.400;16.880;2022-09-29T10:31:43;10.90;;;9.40;;
24335;SDS011;33098;52.400;16.880;2022-09-29T10:34:46;12.30;;;9.50;;
24335;SDS011;33098;52.400;16.880;2022-09-29T10:40:00;13.30;;;10.00;;
24335;SDS011;33098;52.400;16.880;2022-09-29T10:42:44;10.60;;;9.40;;
24335;SDS011;33098;52.400;16.880;2022-09-29T10:45:28;11.80;;;10.20;;
24335;SDS011;33098;52.400;16.880;2022-09-29T10:50:33;11.50;;;9.50;;
24335;SDS011;33098;52.400;16.880;2022-09-29T10:53:03;10.60;;;9.40;;
24335;SDS011;33098;52.400;16.880;2022-09-29T10:55:50;10.10;;;8.80;;
24335;SDS011;33098;52.400;16.880;2022-09-29T11:01:00;10.80;;;9.10;;
24335;SDS011;33098;52.400;16.880;2022-09-29T11:03:34;14.50;;;9.80;;
24335;SDS011;33098;52.400;16.880;2022-09-29T11:06:12;10.40;;;8.70;;
24335;SDS011;33098;52.400;16.880;2022-09-29T11:11:52;10.30;;;8.70;;
24335;SDS011;33098;52.400;16.880;2022-09-29T11:14:31;9.90;;;8.90;;
24335;SDS011;33098;52.400;16.880;2022-09-29T11:19:57;10.30;;;9.00;;
24335;SDS011;33098;52.400;16.880;2022-09-29T11:28:15;9.40;;;8.40;;
24335;SDS011;33098;52.400;16.880;2022-09-29T11:33:33;10.90;;;9.00;;
24335;SDS011;33098;52.400;16.880;2022-09-29T11:36:16;11.70;;;8.90;;
24335;SDS011;33098;52.400;16.880;2022-09-29T11:47:29;11.80;;;9.60;;
24335;SDS011;33098;52.400;16.880;2022-09-29T11:58:43;10.40;;;8.80;;
24335;SDS011;33098;52.400;16.880;2022-09-29T12:04:08;10.80;;;9.10;;
24335;SDS011;33098;52.400;16.880;2022-09-29T12:06:55;11.70;;;8.90;;
24335;SDS011;33098;52.400;16.880;2022-09-29T12:09:35;10.00;;;8.80;;
24335;SDS011;33098;52.400;16.880;2022-09-29T12:12:29;10.20;;;8.70;;
24335;SDS011;33098;52.400;16.880;2022-09-29T12:15:23;14.00;;;9.50;;
24335;SDS011;33098;52.400;16.880;2022-09-29T12:18:01;10.20;;;8.70;;
24335;SDS011;33098;52.400;16.880;2022-09-29T12:20:34;10.10;;;8.10;;
24335;SDS011;33098;52.400;16.880;2022-09-29T12:23:09;10.10;;;8.10;;
24335;SDS011;33098;52.400;16.880;2022-09-29T12:25:42;10.40;;;7.70;;
24335;SDS011;33098;52.400;16.880;2022-09-29T12:28:18;7.80;;;7.00;;
24335;SDS011;33098;52.400;16.880;2022-09-29T12:31:00;9.60;;;7.70;;
24335;SDS011;33098;52.400;16.880;2022-09-29T12:33:39;10.30;;;7.40;;
24335;SDS011;33098;52.400;16.880;2022-09-29T12:39:33;12.10;;;8.70;;
24335;SDS011;33098;52.400;16.880;2022-09-29T12:53:50;10.20;;;8.20;;
24335;SDS011;33098;52.400;16.880;2022-09-29T12:56:28;10.20;;;8.00;;
24335;SDS011;33098;52.400;16.880;2022-09-29T13:01:53;9.50;;;7.80;;
24335;SDS011;33098;52.400;16.880;2022-09-29T13:10:16;8.90;;;7.60;;
24335;SDS011;33098;52.400;16.880;2022-09-29T13:21:31;8.90;;;6.90;;
24335;SDS011;33098;52.400;16.880;2022-09-29T13:29:33;8.10;;;6.50;;
24335;SDS011;33098;52.400;16.880;2022-09-29T13:32:12;7.90;;;7.10;;
24335;SDS011;33098;52.400;16.880;2022-09-29T13:34:46;8.90;;;6.70;;
24335;SDS011;33098;52.400;16.880;2022-09-29T13:37:22;11.20;;;7.50;;
24335;SDS011;33098;52.400;16.880;2022-09-29T13:39:58;8.30;;;7.40;;
24335;SDS011;33098;52.400;16.880;2022-09-29T13:42:41;8.60;;;7.60;;
24335;SDS011;33098;52.400;16.880;2022-09-29T13:47:47;8.80;;;7.50;;
24335;SDS011;33098;52.400;16.880;2022-09-29T13:58:31;7.00;;;6.30;;
24335;SDS011;33098;52.400;16.880;2022-09-29T14:01:00;14.20;;;8.30;;
24335;SDS011;33098;52.400;16.880;2022-09-29T14:03:36;9.20;;;6.60;;
24335;SDS011;33098;52.400;16.880;2022-09-29T14:06:19;10.30;;;7.00;;
24335;SDS011;33098;52.400;16.880;2022-09-29T14:11:31;9.20;;;8.00;;
24335;SDS011;33098;52.400;16.880;2022-09-29T14:14:22;7.90;;;7.00;;
24335;SDS011;33098;52.400;16.880;2022-09-29T14:24:54;9.90;;;7.90;;
24335;SDS011;33098;52.400;16.880;2022-09-29T14:43:58;9.40;;;8.00;;
24335;SDS011;33098;52.400;16.880;2022-09-29T14:49:35;7.20;;;6.00;;
24335;SDS011;33098;52.400;16.880;2022-09-29T15:01:16;11.00;;;9.90;;
24335;SDS011;33098;52.400;16.880;2022-09-29T15:03:51;7.80;;;6.90;;
24335;SDS011;33098;52.400;16.880;2022-09-29T15:06:25;12.80;;;11.00;;
24335;SDS011;33098;52.400;16.880;2022-09-29T15:11:50;8.80;;;6.50;;
24335;SDS011;33098;52.400;16.880;2022-09-29T15:14:30;7.70;;;5.90;;
24335;SDS011;33098;52.400;16.880;2022-09-29T15:20:01;7.40;;;6.60;;
24335;SDS011;33098;52.400;16.880;2022-09-29T15:25:37;7.60;;;6.00;;
24335;SDS011;33098;52.400;16.880;2022-09-29T15:30:50;6.80;;;6.10;;
24335;SDS011;33098;52.400;16.880;2022-09-29T15:33:23;7.00;;;6.30;;
24335;SDS011;33098;52.400;16.880;2022-09-29T15:36:05;28.30;;;25.50;;
24335;SDS011;33098;52.400;16.880;2022-09-29T15:38:35;22.00;;;19.80;;
24335;SDS011;33098;52.400;16.880;2022-09-29T15:43:55;10.30;;;9.20;;
24335;SDS011;33098;52.400;16.880;2022-09-29T15:51:59;10.60;;;8.40;;
24335;SDS011;33098;52.400;16.880;2022-09-29T15:54:30;7.70;;;6.30;;
24335;SDS011;33098;52.400;16.880;2022-09-29T15:57:06;7.40;;;6.10;;
24335;SDS011;33098;52.400;16.880;2022-09-29T15:59:55;6.30;;;5.40;;
24335;SDS011;33098;52.400;16.880;2022-09-29T16:04:53;6.40;;;5.70;;
24335;SDS011;33098;52.400;16.880;2022-09-29T16:07:27;6.60;;;5.70;;
24335;SDS011;33098;52.400;16.880;2022-09-29T16:10:02;8.30;;;6.00;;
24335;SDS011;33098;52.400;16.880;2022-09-29T16:12:31;6.60;;;5.00;;
24335;SDS011;33098;52.400;16.880;2022-09-29T16:15:03;7.80;;;5.70;;
24335;SDS011;33098;52.400;16.880;2022-09-29T16:17:31;5.80;;;4.90;;
24335;SDS011;33098;52.400;16.880;2022-09-29T16:20:01;6.40;;;4.90;;
24335;SDS011;33098;52.400;16.880;2022-09-29T16:22:28;5.70;;;5.10;;
24335;SDS011;33098;52.400;16.880;2022-09-29T16:25:09;5.80;;;4.50;;
24335;SDS011;33098;52.400;16.880;2022-09-29T16:27:52;5.40;;;4.80;;
24335;SDS011;33098;52.400;16.880;2022-09-29T16:30:25;8.80;;;5.70;;
24335;SDS011;33098;52.400;16.880;2022-09-29T16:35:40;8.30;;;6.70;;
24335;SDS011;33098;52.400;16.880;2022-09-29T16:38:39;9.20;;;7.70;;
24335;SDS011;33098;52.400;16.880;2022-09-29T16:41:24;8.60;;;7.30;;
24335;SDS011;33098;52.400;16.880;2022-09-29T16:49:22;15.90;;;9.40;;
24335;SDS011;33098;52.400;16.880;2022-09-29T16:51:59;12.60;;;7.70;;
24335;SDS011;33098;52.400;16.880;2022-09-29T16:54:52;11.30;;;7.90;;
24335;SDS011;33098;52.400;16.880;2022-09-29T16:57:31;9.70;;;7.90;;
24335;SDS011;33098;52.400;16.880;2022-09-29T17:00:10;10.60;;;8.30;;
24335;SDS011;33098;52.400;16.880;2022-09-29T17:02:38;14.00;;;8.10;;
24335;SDS011;33098;52.400;16.880;2022-09-29T17:05:05;12.40;;;7.80;;
24335;SDS011;33098;52.400;16.880;2022-09-29T17:07:39;9.70;;;7.60;;
24335;SDS011;33098;52.400;16.880;2022-09-29T17:10:15;19.80;;;8.00;;
24335;SDS011;33098;52.400;16.880;2022-09-29T17:12:46;12.20;;;8.20;;
24335;SDS011;33098;52.400;16.880;2022-09-29T17:15:14;9.60;;;7.50;;
24335;SDS011;33098;52.400;16.880;2022-09-29T17:17:44;10.90;;;7.80;;
24335;SDS011;33098;52.400;16.880;2022-09-29T17:20:16;12.60;;;8.10;;
24335;SDS011;33098;52.400;16.880;2022-09-29T17:25:18;13.90;;;9.10;;
24335;SDS011;33098;52.400;16.880;2022-09-29T17:27:45;14.70;;;9.70;;
24335;SDS011;33098;52.400;16.880;2022-09-29T17:30:31;12.00;;;9.30;;
24335;SDS011;33098;52.400;16.880;2022-09-29T17:33:03;14.70;;;10.30;;
24335;SDS011;33098;52.400;16.880;2022-09-29T17:35:32;13.30;;;9.50;;
24335;SDS011;33098;52.400;16.880;2022-09-29T17:38:08;13.30;;;9.80;;
24335;SDS011;33098;52.400;16.880;2022-09-29T17:43:28;11.00;;;9.20;;
24335;SDS011;33098;52.400;16.880;2022-09-29T17:45:57;16.10;;;10.10;;
24335;SDS011;33098;52.400;16.880;2022-09-29T17:48:25;13.30;;;9.50;;
24335;SDS011;33098;52.400;16.880;2022-09-29T17:50:55;14.80;;;10.10;;
24335;SDS011;33098;52.400;16.880;2022-09-29T17:53:24;14.00;;;9.50;;
24335;SDS011;33098;52.400;16.880;2022-09-29T17:55:57;14.20;;;9.50;;
24335;SDS011;33098;52.400;16.880;2022-09-29T17:58:24;13.20;;;9.70;;
24335;SDS011;33098;52.400;16.880;2022-09-29T18:00:51;16.60;;;10.40;;
24335;SDS011;33098;52.400;16.880;2022-09-29T18:03:23;15.50;;;10.50;;
24335;SDS011;33098;52.400;16.880;2022-09-29T18:05:53;15.10;;;11.20;;
24335;SDS011;33098;52.400;16.880;2022-09-29T18:08:26;20.00;;;12.60;;
24335;SDS011;33098;52.400;16.880;2022-09-29T18:10:59;16.80;;;11.30;;
24335;SDS011;33098;52.400;16.880;2022-09-29T18:13:27;17.50;;;12.30;;
24335;SDS011;33098;52.400;16.880;2022-09-29T18:15:57;19.50;;;12.70;;
24335;SDS011;33098;52.400;16.880;2022-09-29T18:18:25;21.90;;;12.50;;
24335;SDS011;33098;52.400;16.880;2022-09-29T18:20:52;16.80;;;12.30;;
24335;SDS011;33098;52.400;16.880;2022-09-29T18:23:22;20.80;;;12.90;;
24335;SDS011;33098;52.400;16.880;2022-09-29T18:25:50;24.10;;;14.00;;
24335;SDS011;33098;52.400;16.880;2022-09-29T18:28:20;19.80;;;13.80;;
24335;SDS011;33098;52.400;16.880;2022-09-29T18:30:48;28.00;;;16.40;;
24335;SDS011;33098;52.400;16.880;2022-09-29T18:33:18;26.70;;;15.90;;
24335;SDS011;33098;52.400;16.880;2022-09-29T18:35:53;26.70;;;17.30;;
24335;SDS011;33098;52.400;16.880;2022-09-29T18:38:21;26.40;;;16.80;;
24335;SDS011;33098;52.400;16.880;2022-09-29T18:40:51;34.30;;;20.30;;
24335;SDS011;33098;52.400;16.880;2022-09-29T18:43:22;34.60;;;22.10;;
24335;SDS011;33098;52.400;16.880;2022-09-29T18:45:56;37.40;;;22.30;;
24335;SDS011;33098;52.400;16.880;2022-09-29T18:48:24;45.50;;;26.30;;
24335;SDS011;33098;52.400;16.880;2022-09-29T18:50:54;48.80;;;28.30;;
24335;SDS011;33098;52.400;16.880;2022-09-29T18:53:22;46.00;;;27.70;;
24335;SDS011;33098;52.400;16.880;2022-09-29T18:55:53;44.50;;;25.30;;
24335;SDS011;33098;52.400;16.880;2022-09-29T18:58:25;44.40;;;26.90;;
24335;SDS011;33098;52.400;16.880;2022-09-29T19:00:52;48.20;;;27.70;;
24335;SDS011;33098;52.400;16.880;2022-09-29T19:03:21;39.90;;;25.20;;
24335;SDS011;33098;52.400;16.880;2022-09-29T19:05:49;36.40;;;23.60;;
24335;SDS011;33098;52.400;16.880;2022-09-29T19:08:17;44.20;;;26.20;;
24335;SDS011;33098;52.400;16.880;2022-09-29T19:11:00;42.60;;;25.60;;
24335;SDS011;33098;52.400;16.880;2022-09-29T19:13:33;41.50;;;26.00;;